createdAt,value
2018-06-23T03:01:07.382Z,88.07
2018-06-23T03:02:07.648Z,88.45
2018-06-23T03:03:07.163Z,88.45
2018-06-23T03:04:07.883Z,88.93
2018-06-23T03:05:07.643Z,88.84
2018-06-23T03:06:07.663Z,88.93
2018-06-23T03:08:41.836Z,88.07
2018-06-23T03:09:42.415Z,88.26
2018-06-23T03:10:42.855Z,88.17
2018-06-23T03:11:43.000Z,87.40
2018-06-23T03:12:43.860Z,87.31
2018-06-23T03:13:44.024Z,87.98
2018-06-23T03:14:45.616Z,87.12
2018-06-23T03:15:44.827Z,87.31
2018-06-23T03:16:43.914Z,88.17
2018-06-23T03:17:41.531Z,88.93
2018-06-23T03:18:41.424Z,88.74
2018-06-23T03:19:41.667Z,88.17
2018-06-23T03:20:41.866Z,88.07
2018-06-23T03:21:41.826Z,88.74
2018-06-23T03:22:42.028Z,88.17
2018-06-23T03:23:42.244Z,88.12
2018-06-23T03:24:42.383Z,87.98
2018-06-23T03:25:42.552Z,87.64
2018-06-23T03:26:42.682Z,87.93
2018-06-23T03:27:42.836Z,87.40
2018-06-23T03:28:43.017Z,87.16
2018-06-23T03:29:43.173Z,87.74
2018-06-23T03:30:43.293Z,88.31
2018-06-23T03:31:43.532Z,88.31
2018-06-23T03:32:43.725Z,87.93
2018-06-23T03:33:43.926Z,87.26
2018-06-23T03:34:44.049Z,87.35
2018-06-23T03:35:44.219Z,87.26
2018-06-23T03:36:44.375Z,87.45
2018-06-23T03:37:44.589Z,87.16
2018-06-23T03:38:45.652Z,87.31
2018-06-23T03:39:44.999Z,87.69
2018-06-23T03:40:45.145Z,87.93
2018-06-23T03:41:45.326Z,87.54
2018-06-23T03:42:45.480Z,86.83
2018-06-23T03:43:45.612Z,87.35
2018-06-23T03:44:45.756Z,86.65
2018-06-23T03:45:45.910Z,86.59
2018-06-23T03:46:46.079Z,86.40
2018-06-23T03:47:46.243Z,86.55
2018-06-23T03:48:46.414Z,86.59
2018-06-23T03:49:46.569Z,85.64
2018-06-23T03:50:46.753Z,85.64
2018-06-23T03:51:46.835Z,85.73
2018-06-23T03:52:47.053Z,85.54
2018-06-23T03:53:47.231Z,85.45
2018-06-23T03:54:47.345Z,85.45
2018-06-23T03:55:47.570Z,85.35
2018-06-23T03:56:47.724Z,84.59
2018-06-23T03:57:47.906Z,84.97
2018-06-23T03:58:48.101Z,85.25
2018-06-23T03:59:48.307Z,85.35
2018-06-23T04:00:48.713Z,85.35
2018-06-23T04:01:48.664Z,85.45
2018-06-23T04:02:48.748Z,85.45
2018-06-23T04:03:48.880Z,85.54
2018-06-23T04:04:49.152Z,86.02
2018-06-23T04:05:49.300Z,86.40
2018-06-23T04:06:49.464Z,86.98
2018-06-23T04:07:49.790Z,86.11
2018-06-23T04:08:49.807Z,86.49
2018-06-23T04:09:50.013Z,86.49
2018-06-23T04:10:50.151Z,86.49
2018-06-23T04:11:50.387Z,86.11
2018-06-23T04:12:50.482Z,86.98
2018-06-23T04:13:50.678Z,87.26
2018-06-23T04:14:50.792Z,86.40
2018-06-23T04:15:50.985Z,87.07
2018-06-23T04:16:51.113Z,87.26
2018-06-23T04:17:51.326Z,87.26
2018-06-23T04:18:51.511Z,87.07
2018-06-23T04:19:51.617Z,87.45
2018-06-23T04:20:51.792Z,88.78
2018-06-23T04:21:51.988Z,88.69
2018-06-23T04:22:52.130Z,88.64
2018-06-23T04:23:52.296Z,88.73
2018-06-23T04:24:52.483Z,89.31
2018-06-23T04:25:52.620Z,89.02
2018-06-23T04:26:52.776Z,88.78
2018-06-23T04:27:52.982Z,88.59
2018-06-23T04:28:53.031Z,87.74
2018-06-23T04:29:53.226Z,88.88
2018-06-23T04:30:53.473Z,88.69
2018-06-23T04:31:53.659Z,89.64
2018-06-23T04:32:53.818Z,89.83
2018-06-23T04:33:53.886Z,89.64
2018-06-23T04:34:54.111Z,89.64
2018-06-23T04:35:54.306Z,89.74
2018-06-23T04:36:55.208Z,89.83
2018-06-23T04:37:54.624Z,90.12
2018-06-23T04:38:54.831Z,89.36
2018-06-23T04:39:54.887Z,89.26
2018-06-23T04:40:55.102Z,88.31
2018-06-23T04:41:55.347Z,87.35
2018-06-23T04:42:55.501Z,86.49
2018-06-23T04:43:55.648Z,85.77
2018-06-23T04:44:55.849Z,85.58
2018-06-23T04:45:56.065Z,85.68
2018-06-23T04:46:56.327Z,85.77
2018-06-23T04:47:56.423Z,85.39
2018-06-23T04:48:56.637Z,84.63
2018-06-23T04:49:56.829Z,84.06
2018-06-23T04:50:56.889Z,83.67
2018-06-23T04:51:57.078Z,84.53
2018-06-23T04:52:57.257Z,84.34
2018-06-23T04:53:57.462Z,84.92
2018-06-23T04:54:57.646Z,84.67
2018-06-23T04:55:57.796Z,84.20
2018-06-23T04:56:57.875Z,84.39
2018-06-23T04:57:58.153Z,84.29
2018-06-23T04:58:58.245Z,82.95
2018-06-23T04:59:58.410Z,83.62
2018-06-23T05:00:58.570Z,83.81
2018-06-23T05:01:58.770Z,83.34
2018-06-23T05:02:58.909Z,82.48
2018-06-23T05:03:59.088Z,82.48
2018-06-23T05:04:59.186Z,82.86
2018-06-23T05:05:59.392Z,82.48
2018-06-23T05:06:59.503Z,81.71
2018-06-23T05:07:59.735Z,80.47
2018-06-23T05:08:59.918Z,80.47
2018-06-23T05:09:59.996Z,80.47
2018-06-23T05:11:00.194Z,80.76
2018-06-23T05:12:00.400Z,81.04
2018-06-23T05:13:00.572Z,80.28
2018-06-23T05:14:00.815Z,80.47
2018-06-23T05:15:00.901Z,80.38
2018-06-23T05:16:01.046Z,80.09
2018-06-23T05:17:01.254Z,80.28
2018-06-23T05:18:01.418Z,80.19
2018-06-23T05:19:01.562Z,80.47
2018-06-23T05:20:01.705Z,80.38
2018-06-23T05:21:01.869Z,80.57
2018-06-23T05:22:02.145Z,81.04
2018-06-23T05:23:02.274Z,80.04
2018-06-23T05:24:02.435Z,80.04
2018-06-23T05:25:02.640Z,79.90
2018-06-23T05:26:02.922Z,79.65
2018-06-23T05:27:03.026Z,79.17
2018-06-23T05:28:03.280Z,78.41
2018-06-23T05:29:03.402Z,78.60
2018-06-23T05:30:03.551Z,78.13
2018-06-23T05:31:03.811Z,78.22
2018-06-23T05:32:03.862Z,78.41
2018-06-23T05:33:04.136Z,78.89
2018-06-23T05:34:04.247Z,78.51
2018-06-23T05:35:04.509Z,78.03
2018-06-23T05:36:04.628Z,77.84
2018-06-23T05:37:04.767Z,77.74
2018-06-23T05:38:04.982Z,77.74
2018-06-23T05:39:05.106Z,77.17
2018-06-23T05:40:05.354Z,77.08
2018-06-23T05:41:05.508Z,76.88
2018-06-23T05:42:05.623Z,77.08
2018-06-23T05:43:05.803Z,76.79
2018-06-23T05:44:05.934Z,77.26
2018-06-23T05:45:06.058Z,76.79
2018-06-23T05:46:06.284Z,76.50
2018-06-23T05:47:06.364Z,76.25
2018-06-23T05:48:06.625Z,75.07
2018-06-23T05:49:06.772Z,74.40
2018-06-23T05:50:06.969Z,74.98
2018-06-23T05:51:07.159Z,75.10
2018-06-23T05:52:07.296Z,74.82
2018-06-23T05:53:07.487Z,74.44
2018-06-23T05:54:07.681Z,74.53
2018-06-23T05:55:07.769Z,73.77
2018-06-23T05:56:08.032Z,74.34
2018-06-23T05:57:08.149Z,73.77
2018-06-23T05:58:08.320Z,73.96
2018-06-23T05:59:08.459Z,73.48
2018-06-23T06:00:08.690Z,73.00
2018-06-23T06:01:08.786Z,72.72
2018-06-23T06:02:09.023Z,71.38
2018-06-23T06:03:09.192Z,72.33
2018-06-23T06:04:09.342Z,71.95
2018-06-23T06:05:09.503Z,72.05
2018-06-23T06:06:09.719Z,72.33
2018-06-23T06:07:09.899Z,72.24
2018-06-23T06:08:10.082Z,71.95
2018-06-23T06:09:10.221Z,71.86
2018-06-23T06:10:10.466Z,72.53
2018-06-23T06:11:10.580Z,72.43
2018-06-23T06:12:10.719Z,72.56
2018-06-23T06:13:10.881Z,72.75
2018-06-23T06:14:11.002Z,72.94
2018-06-23T06:15:11.183Z,73.23
2018-06-23T06:16:11.472Z,73.71
2018-06-23T06:17:11.504Z,73.58
2018-06-23T06:18:11.766Z,72.94
2018-06-23T06:19:11.896Z,73.19
2018-06-23T06:20:12.174Z,73.23
2018-06-23T06:21:12.346Z,72.14
2018-06-23T06:22:12.460Z,72.81
2018-06-23T06:23:12.649Z,72.08
2018-06-23T06:24:12.871Z,71.95
2018-06-23T06:25:13.048Z,72.43
2018-06-23T06:26:13.232Z,72.33
2018-06-23T06:27:14.143Z,71.76
2018-06-23T06:28:13.518Z,72.33
2018-06-23T06:29:13.821Z,72.18
2018-06-23T06:30:13.949Z,71.89
2018-06-23T06:31:14.239Z,71.28
2018-06-23T06:32:14.370Z,71.28
2018-06-23T06:33:14.539Z,70.23
2018-06-23T06:34:14.775Z,70.23
2018-06-23T06:35:14.879Z,70.61
2018-06-23T06:36:14.969Z,71.00
2018-06-23T06:37:15.181Z,70.61
2018-06-23T06:38:15.388Z,71.13
2018-06-23T06:39:15.512Z,71.00
2018-06-23T06:40:15.746Z,70.36
2018-06-23T06:41:15.845Z,70.23
2018-06-23T06:42:16.000Z,70.84
2018-06-23T06:43:16.184Z,71.19
2018-06-23T06:44:16.372Z,70.65
2018-06-23T06:45:16.615Z,71.13
2018-06-23T06:46:16.667Z,71.13
2018-06-23T06:47:16.908Z,70.94
2018-06-23T06:48:17.070Z,70.36
2018-06-23T06:49:17.254Z,69.98
2018-06-23T06:50:17.462Z,70.07
2018-06-23T06:51:17.607Z,70.27
2018-06-23T06:52:17.706Z,69.31
2018-06-23T06:53:17.905Z,69.25
2018-06-23T06:54:18.065Z,69.21
2018-06-23T06:55:18.250Z,68.77
2018-06-23T06:56:18.399Z,68.87
2018-06-23T06:57:18.559Z,69.54
2018-06-23T06:58:18.800Z,69.82
2018-06-23T06:59:18.986Z,69.73
2018-06-23T07:00:19.146Z,69.54
2018-06-23T07:01:19.335Z,69.54
2018-06-23T07:02:19.513Z,70.87
2018-06-23T07:03:19.681Z,71.36
2018-06-23T07:04:19.836Z,70.21
2018-06-23T07:05:20.018Z,71.26
2018-06-23T07:06:20.135Z,70.68
2018-06-23T07:07:20.413Z,69.25
2018-06-23T07:08:20.468Z,69.64
2018-06-23T07:09:20.679Z,69.25
2018-06-23T07:10:21.589Z,68.77
2018-06-23T07:11:21.008Z,69.25
2018-06-23T07:12:21.278Z,69.82
2018-06-23T07:13:21.345Z,69.64
2018-06-23T07:14:21.544Z,69.35
2018-06-23T07:15:21.738Z,69.73
2018-06-23T07:16:21.906Z,69.73
2018-06-23T07:17:22.060Z,69.25
2018-06-23T07:18:22.228Z,69.73
2018-06-23T07:19:22.355Z,68.96
2018-06-23T07:20:22.475Z,68.77
2018-06-23T07:21:22.699Z,68.77
2018-06-23T07:22:22.890Z,68.68
2018-06-23T07:23:23.005Z,69.21
2018-06-23T07:24:23.216Z,69.50
2018-06-23T07:25:23.490Z,69.79
2018-06-23T07:26:23.669Z,69.50
2018-06-23T07:27:23.824Z,70.56
2018-06-23T07:28:24.046Z,70.36
2018-06-23T07:29:24.134Z,70.56
2018-06-23T07:30:24.321Z,70.75
2018-06-23T07:31:24.405Z,70.56
2018-06-23T07:32:24.664Z,70.65
2018-06-23T07:33:24.861Z,70.56
2018-06-23T07:34:25.029Z,70.84
2018-06-23T07:35:25.214Z,70.65
2018-06-23T07:36:25.393Z,70.56
2018-06-23T07:37:25.503Z,70.46
2018-06-23T07:38:25.653Z,70.46
2018-06-23T07:39:25.767Z,70.36
2018-06-23T07:40:25.916Z,70.56
2018-06-23T07:41:26.152Z,70.56
2018-06-23T07:42:26.285Z,70.56
2018-06-23T07:43:26.490Z,71.36
2018-06-23T07:44:26.681Z,71.93
2018-06-23T07:45:26.820Z,71.93
2018-06-23T07:46:26.975Z,71.26
2018-06-23T07:47:27.209Z,70.40
2018-06-23T07:48:27.311Z,70.50
2018-06-23T07:49:27.493Z,69.64
2018-06-23T07:50:27.632Z,70.01
2018-06-23T07:51:27.794Z,69.54
2018-06-23T07:52:27.964Z,69.35
2018-06-23T07:53:28.159Z,69.35
2018-06-23T07:54:28.313Z,69.25
2018-06-23T07:55:28.618Z,68.87
2018-06-23T07:56:28.640Z,68.20
2018-06-23T07:57:28.851Z,68.29
2018-06-23T07:58:29.041Z,68.80
2018-06-23T07:59:29.128Z,68.96
2018-06-23T08:00:29.335Z,69.15
2018-06-23T08:01:29.521Z,69.44
2018-06-23T08:02:29.753Z,69.44
2018-06-23T08:03:29.864Z,69.64
2018-06-23T08:04:30.377Z,69.82
2018-06-23T08:05:30.339Z,70.40
2018-06-23T08:06:30.460Z,70.87
2018-06-23T08:07:30.667Z,69.92
2018-06-23T08:08:30.907Z,70.40
2018-06-23T08:09:31.063Z,70.30
2018-06-23T08:10:31.278Z,70.68
2018-06-23T08:11:31.457Z,70.40
2018-06-23T08:12:31.596Z,69.92
2018-06-23T08:13:31.875Z,70.21
2018-06-23T08:14:31.980Z,69.92
2018-06-23T08:15:32.142Z,70.68
2018-06-23T08:16:32.347Z,71.55
2018-06-23T08:17:32.480Z,71.55
2018-06-23T08:18:32.683Z,71.64
2018-06-23T08:19:32.872Z,71.83
2018-06-23T08:20:33.059Z,71.36
2018-06-23T08:21:33.194Z,70.43
2018-06-23T08:22:33.275Z,70.34
2018-06-23T08:23:33.511Z,69.67
2018-06-23T08:24:33.770Z,70.43
2018-06-23T08:25:33.854Z,69.38
2018-06-23T08:26:34.255Z,69.38
2018-06-23T08:27:34.242Z,68.71
2018-06-23T08:28:34.551Z,68.42
2018-06-23T08:29:34.623Z,68.33
2018-06-23T08:30:34.798Z,67.85
2018-06-23T08:31:34.985Z,69.09
2018-06-23T08:32:35.124Z,69.44
2018-06-23T08:33:35.416Z,69.48
2018-06-23T08:34:35.559Z,68.62
2018-06-23T08:35:35.626Z,68.80
2018-06-23T08:36:35.783Z,68.23
2018-06-23T08:37:35.981Z,68.13
2018-06-23T08:38:36.234Z,68.80
2018-06-23T08:39:36.276Z,69.00
2018-06-23T08:40:36.549Z,68.23
2018-06-23T08:41:36.669Z,69.19
2018-06-23T08:42:36.977Z,69.67
2018-06-23T08:43:36.959Z,69.57
2018-06-23T08:44:37.188Z,69.38
2018-06-23T08:45:37.345Z,69.38
2018-06-23T08:46:37.464Z,68.90
2018-06-23T08:47:37.715Z,68.23
2018-06-23T08:48:37.871Z,68.80
2018-06-23T08:49:38.037Z,69.00
2018-06-23T08:50:38.202Z,69.09
2018-06-23T08:51:38.369Z,69.86
2018-06-23T08:52:38.579Z,71.30
2018-06-23T08:53:38.752Z,71.77
2018-06-23T08:54:38.866Z,71.68
2018-06-23T08:55:39.078Z,71.20
2018-06-23T08:56:39.174Z,71.01
2018-06-23T08:57:39.442Z,71.20
2018-06-23T08:58:39.512Z,70.91
2018-06-23T08:59:39.790Z,71.39
2018-06-23T09:00:39.885Z,71.39
2018-06-23T09:01:40.105Z,71.77
2018-06-23T09:02:40.416Z,71.58
2018-06-23T09:03:40.512Z,71.11
2018-06-23T09:04:40.652Z,71.30
2018-06-23T09:05:40.821Z,71.58
2018-06-23T09:06:40.968Z,71.39
2018-06-23T09:07:41.135Z,71.20
2018-06-23T09:08:41.278Z,71.58
2018-06-23T09:09:41.483Z,71.20
2018-06-23T09:10:41.630Z,71.68
2018-06-23T09:11:41.803Z,71.68
2018-06-23T09:12:41.949Z,71.77
2018-06-23T09:13:42.273Z,72.44
2018-06-23T09:14:42.271Z,73.69
2018-06-23T09:15:42.433Z,73.59
2018-06-23T09:16:42.695Z,72.54
2018-06-23T09:17:43.568Z,72.63
2018-06-23T09:18:42.972Z,73.30
2018-06-23T09:19:43.264Z,72.63
2018-06-23T09:20:43.316Z,72.06
2018-06-23T09:21:43.599Z,72.06
2018-06-23T09:22:43.685Z,73.30
2018-06-23T09:23:43.836Z,72.92
2018-06-23T09:24:44.058Z,73.69
2018-06-23T09:25:44.187Z,73.69
2018-06-23T09:27:03.489Z,72.83
2018-06-23T09:27:46.998Z,73.79
2018-06-23T09:28:48.070Z,73.84
2018-06-23T09:31:45.584Z,74.51
2018-06-23T09:32:45.723Z,74.22
2018-06-23T09:33:45.898Z,74.41
2018-06-23T09:34:45.885Z,73.75
2018-06-23T09:35:46.091Z,73.55
2018-06-23T09:36:46.267Z,74.51
2018-06-23T09:37:46.324Z,74.51
2018-06-23T09:38:46.580Z,73.84
2018-06-23T09:39:46.697Z,72.50
2018-06-23T09:40:46.940Z,72.88
2018-06-23T09:41:47.920Z,72.60
2018-06-23T09:42:47.296Z,73.46
2018-06-23T09:43:48.151Z,73.17
2018-06-23T09:44:48.096Z,73.17
2018-06-23T09:45:47.809Z,72.69
2018-06-23T09:46:47.985Z,72.69
2018-06-23T09:47:48.774Z,73.27
2018-06-23T09:48:48.218Z,73.84
2018-06-23T09:49:50.142Z,73.94
2018-06-23T09:50:48.610Z,74.70
2018-06-23T09:51:48.733Z,74.22
2018-06-23T09:52:48.976Z,74.13
2018-06-23T09:53:49.134Z,74.41
2018-06-23T09:54:49.278Z,74.41
2018-06-23T09:55:49.664Z,74.70
2018-06-23T09:56:49.634Z,74.70
2018-06-23T09:57:49.884Z,75.18
2018-06-23T09:58:50.007Z,76.62
2018-06-23T09:59:50.811Z,76.71
2018-06-23T10:00:50.399Z,76.52
2018-06-23T10:01:50.551Z,77.00
2018-06-23T10:02:50.708Z,77.28
2018-06-23T10:03:50.841Z,76.90
2018-06-23T10:04:51.127Z,77.67
2018-06-23T10:05:51.251Z,78.14
2018-06-23T10:06:51.426Z,78.91
2018-06-23T10:07:51.614Z,79.39
2018-06-23T10:08:51.860Z,79.10
2018-06-23T10:09:51.901Z,79.10
2018-06-23T10:10:52.258Z,79.73
2018-06-23T10:11:52.312Z,80.02
2018-06-23T10:12:52.522Z,79.58
2018-06-23T10:13:52.646Z,80.40
2018-06-23T10:14:52.759Z,80.40
2018-06-23T10:15:52.968Z,79.83
2018-06-23T10:16:53.277Z,79.73
2018-06-23T10:17:53.294Z,79.25
2018-06-23T10:18:53.576Z,79.93
2018-06-23T10:19:53.730Z,79.83
2018-06-23T10:20:53.856Z,80.40
2018-06-23T10:21:54.049Z,80.11
2018-06-23T10:22:54.576Z,80.35
2018-06-23T10:23:54.432Z,81.07
2018-06-23T10:24:54.588Z,80.59
2018-06-23T10:25:54.774Z,81.26
2018-06-23T10:26:54.921Z,80.79
2018-06-23T10:27:55.090Z,82.03
2018-06-23T10:28:55.252Z,82.41
2018-06-23T10:29:55.430Z,83.56
2018-06-23T10:30:55.632Z,83.75
2018-06-23T10:31:55.795Z,82.98
2018-06-23T10:32:55.963Z,82.41
2018-06-23T10:33:56.161Z,82.70
2018-06-23T10:34:56.313Z,82.93
2018-06-23T10:35:56.383Z,83.50
2018-06-23T10:36:56.637Z,83.46
2018-06-23T10:37:56.849Z,83.40
2018-06-23T10:38:57.010Z,83.75
2018-06-23T10:39:57.169Z,83.08
2018-06-23T10:40:57.542Z,84.23
2018-06-23T10:41:57.563Z,83.98
2018-06-23T10:42:57.673Z,84.32
2018-06-23T10:43:57.965Z,84.42
2018-06-23T10:44:58.082Z,84.99
2018-06-23T10:45:58.278Z,84.23
2018-06-23T10:46:58.382Z,83.84
2018-06-23T10:47:58.616Z,83.75
2018-06-23T10:48:58.825Z,83.65
2018-06-23T10:49:59.810Z,83.94
2018-06-23T10:50:59.058Z,83.23
2018-06-23T10:51:59.224Z,83.65
2018-06-23T10:52:59.523Z,83.08
2018-06-23T10:53:59.570Z,82.70
2018-06-23T10:54:59.761Z,82.03
2018-06-23T10:55:59.928Z,80.82
2018-06-23T10:57:00.095Z,80.63
2018-06-23T10:58:00.200Z,80.10
2018-06-23T10:59:00.408Z,78.66
2018-06-23T11:00:00.537Z,76.94
2018-06-23T11:01:00.738Z,75.54
2018-06-23T11:02:00.901Z,75.39
2018-06-23T11:03:01.056Z,74.85
2018-06-23T11:04:01.379Z,73.16
2018-06-23T11:05:01.604Z,72.39
2018-06-23T11:06:01.618Z,72.14
2018-06-23T11:07:01.767Z,69.30
2018-06-23T11:08:01.992Z,68.21
2018-06-23T11:09:02.086Z,64.98
2018-06-23T11:10:02.264Z,62.80
2018-06-23T11:11:02.392Z,62.41
2018-06-23T11:12:02.594Z,61.14
2018-06-23T11:13:02.764Z,60.94
2018-06-23T11:14:02.977Z,60.37
2018-06-23T11:15:03.103Z,61.29
2018-06-23T11:16:03.271Z,59.33
2018-06-23T11:17:03.422Z,57.05
2018-06-23T11:18:03.568Z,56.25
2018-06-23T11:19:03.815Z,56.60
2018-06-23T11:20:03.991Z,57.06
2018-06-23T11:21:04.106Z,57.03
2018-06-23T11:22:04.243Z,57.87
2018-06-23T11:23:04.492Z,57.68
2018-06-23T11:24:04.606Z,58.89
2018-06-23T11:25:04.774Z,60.50
2018-06-23T11:26:04.954Z,61.24
2018-06-23T11:27:05.117Z,62.74
2018-06-23T11:28:05.244Z,64.37
2018-06-23T11:29:05.498Z,65.49
2018-06-23T11:30:05.675Z,66.64
2018-06-23T11:31:05.990Z,66.74
2018-06-23T11:32:05.961Z,66.22
2018-06-23T11:33:06.135Z,66.61
2018-06-23T11:34:06.319Z,67.05
2018-06-23T11:35:06.527Z,68.01
2018-06-23T11:36:06.633Z,69.35
2018-06-23T11:37:06.776Z,69.64
2018-06-23T11:38:06.975Z,71.17
2018-06-23T11:39:07.167Z,71.94
2018-06-23T11:40:07.290Z,71.66
2018-06-23T11:41:07.473Z,71.56
2018-06-23T11:42:07.669Z,72.23
2018-06-23T11:43:07.837Z,71.56
2018-06-23T11:44:08.019Z,72.03
2018-06-23T11:45:08.142Z,71.84
2018-06-23T11:46:08.313Z,71.50
2018-06-23T11:47:08.447Z,71.75
2018-06-23T11:48:08.623Z,71.84
2018-06-23T11:49:08.834Z,72.36
2018-06-23T11:50:08.954Z,72.55
2018-06-23T11:51:09.188Z,72.84
2018-06-23T11:52:09.413Z,73.32
2018-06-23T11:53:09.554Z,73.80
2018-06-23T11:54:09.606Z,73.13
2018-06-23T11:55:09.847Z,72.27
2018-06-23T11:56:09.963Z,71.72
2018-06-23T11:57:10.156Z,72.11
2018-06-23T11:58:10.321Z,71.25
2018-06-23T11:59:10.535Z,71.05
2018-06-23T12:00:10.639Z,70.96
2018-06-23T12:01:10.816Z,70.96
2018-06-23T12:02:10.984Z,70.00
2018-06-23T12:03:11.128Z,69.23
2018-06-23T12:04:11.360Z,67.79
2018-06-23T12:05:11.559Z,67.79
2018-06-23T12:06:11.708Z,67.99
2018-06-23T12:07:11.826Z,69.42
2018-06-23T12:08:12.016Z,69.90
2018-06-23T12:09:12.247Z,71.15
2018-06-23T12:10:12.371Z,68.95
2018-06-23T12:11:12.480Z,68.40
2018-06-23T12:12:12.717Z,67.35
2018-06-23T12:13:12.824Z,67.54
2018-06-23T12:14:13.091Z,67.54
2018-06-23T12:15:13.219Z,67.54
2018-06-23T12:16:13.449Z,67.06
2018-06-23T12:17:13.557Z,66.61
2018-06-23T12:18:13.730Z,66.42
2018-06-23T12:19:13.872Z,65.46
2018-06-23T12:20:14.221Z,63.76
2018-06-23T12:21:14.264Z,64.15
2018-06-23T12:22:14.396Z,64.25
2018-06-23T12:23:14.592Z,63.76
2018-06-23T12:24:14.781Z,63.22
2018-06-23T12:25:14.921Z,61.20
2018-06-23T12:26:15.108Z,60.82
2018-06-23T12:27:15.235Z,62.16
2018-06-23T12:28:15.400Z,61.01
2018-06-23T12:29:15.583Z,60.43
2018-06-23T12:30:15.801Z,60.24
2018-06-23T12:31:15.954Z,59.86
2018-06-23T12:32:16.135Z,60.05
2018-06-23T12:33:16.247Z,60.60
2018-06-23T12:34:16.453Z,60.78
2018-06-23T12:35:16.651Z,60.98
2018-06-23T12:36:16.754Z,61.81
2018-06-23T12:37:16.949Z,61.94
2018-06-23T12:38:17.111Z,60.40
2018-06-23T12:39:17.322Z,61.08
2018-06-23T12:40:17.447Z,60.98
2018-06-23T12:41:17.596Z,60.60
2018-06-23T12:42:17.804Z,60.78
2018-06-23T12:43:17.917Z,59.25
2018-06-23T12:44:18.107Z,60.02
2018-06-23T12:45:18.272Z,60.66
2018-06-23T12:46:18.643Z,61.05
2018-06-23T12:47:18.671Z,60.66
2018-06-23T12:48:18.824Z,60.38
2018-06-23T12:49:18.973Z,60.95
2018-06-23T12:50:19.174Z,61.81
2018-06-23T12:51:19.352Z,60.92
2018-06-23T12:52:19.557Z,61.43
2018-06-23T12:53:19.702Z,61.62
2018-06-23T12:54:19.899Z,61.05
2018-06-23T12:55:20.112Z,60.75
2018-06-23T12:56:20.168Z,60.66
2018-06-23T12:57:20.374Z,60.28
2018-06-23T12:58:20.513Z,59.61
2018-06-23T12:59:20.706Z,59.73
2018-06-23T13:00:20.874Z,60.02
2018-06-23T13:01:21.059Z,60.50
2018-06-23T13:02:21.233Z,60.88
2018-06-23T13:03:21.396Z,60.50
2018-06-23T13:04:21.622Z,60.02
2018-06-23T13:05:21.833Z,60.02
2018-06-23T13:06:22.032Z,60.02
2018-06-23T13:07:22.159Z,59.54
2018-06-23T13:08:22.316Z,59.83
2018-06-23T13:09:22.475Z,60.78
2018-06-23T13:10:22.625Z,60.50
2018-06-23T13:11:22.850Z,60.02
2018-06-23T13:12:22.968Z,60.21
2018-06-23T13:13:23.166Z,60.57
2018-06-23T13:14:23.281Z,59.99
2018-06-23T13:15:23.540Z,60.28
2018-06-23T13:16:23.680Z,60.95
2018-06-23T13:17:23.784Z,60.85
2018-06-23T13:18:23.963Z,60.47
2018-06-23T13:19:24.105Z,59.99
2018-06-23T13:20:24.305Z,60.02
2018-06-23T13:21:24.483Z,59.34
2018-06-23T13:22:24.786Z,60.11
2018-06-23T13:23:24.851Z,59.92
2018-06-23T13:24:24.994Z,59.83
2018-06-23T13:25:25.163Z,59.54
2018-06-23T13:26:25.380Z,59.12
2018-06-23T13:27:25.495Z,58.39
2018-06-23T13:28:25.641Z,58.26
2018-06-23T13:29:25.864Z,58.17
2018-06-23T13:30:25.961Z,58.07
2018-06-23T13:31:26.132Z,58.55
2018-06-23T13:32:26.330Z,59.09
2018-06-23T13:33:26.529Z,58.91
2018-06-23T13:34:26.747Z,59.48
2018-06-23T13:35:26.879Z,59.77
2018-06-23T13:36:27.050Z,60.44
2018-06-23T13:37:27.220Z,60.35
2018-06-23T13:38:27.392Z,60.03
2018-06-23T13:39:27.563Z,59.93
2018-06-23T13:40:27.690Z,60.41
2018-06-23T13:41:27.932Z,60.70
2018-06-23T13:42:28.058Z,60.72
2018-06-23T13:43:28.332Z,60.15
2018-06-23T13:44:28.466Z,60.35
2018-06-23T13:45:28.610Z,60.15
2018-06-23T13:46:28.748Z,60.08
2018-06-23T13:47:28.957Z,59.99
2018-06-23T13:48:29.131Z,58.87
2018-06-23T13:49:29.260Z,57.77
2018-06-23T13:50:29.443Z,56.48
2018-06-23T13:51:29.661Z,53.91
2018-06-23T13:52:29.813Z,53.43
2018-06-23T13:53:29.975Z,52.37
2018-06-23T13:54:30.104Z,51.70
2018-06-23T13:55:30.267Z,52.18
2018-06-23T13:56:30.417Z,51.38
2018-06-23T13:57:30.668Z,52.54
2018-06-23T13:58:30.743Z,53.50
2018-06-23T13:59:30.927Z,53.38
2018-06-23T14:00:31.126Z,53.66
2018-06-23T14:01:31.288Z,53.64
2018-06-23T14:02:31.527Z,54.31
2018-06-23T14:03:31.623Z,54.86
2018-06-23T14:04:31.821Z,55.76
2018-06-23T14:05:31.981Z,56.78
2018-06-23T14:06:32.213Z,55.82
2018-06-23T14:07:32.327Z,55.85
2018-06-23T14:08:32.433Z,56.62
2018-06-23T14:09:32.636Z,55.81
2018-06-23T14:10:32.782Z,55.81
2018-06-23T14:11:32.976Z,54.20
2018-06-23T14:12:33.163Z,53.14
2018-06-23T14:13:33.323Z,51.98
2018-06-23T14:14:33.526Z,53.62
2018-06-23T14:15:33.680Z,54.46
2018-06-23T14:16:33.829Z,53.50
2018-06-23T14:17:33.985Z,53.69
2018-06-23T14:18:34.162Z,53.57
2018-06-23T14:19:34.351Z,55.11
2018-06-23T14:20:34.549Z,55.88
2018-06-23T14:21:34.675Z,57.10
2018-06-23T14:22:34.867Z,56.81
2018-06-23T14:23:35.033Z,57.39
2018-06-23T14:24:35.219Z,57.77
2018-06-23T14:25:35.415Z,56.52
2018-06-23T14:26:35.612Z,56.81
2018-06-23T14:27:35.790Z,56.04
2018-06-23T14:28:35.965Z,56.43
2018-06-23T14:29:36.126Z,55.08
2018-06-23T14:30:36.276Z,53.74
2018-06-23T14:31:36.548Z,53.47
2018-06-23T14:32:36.640Z,54.14
2018-06-23T14:33:36.808Z,54.14
2018-06-23T14:34:36.958Z,53.47
2018-06-23T14:35:37.164Z,53.76
2018-06-23T14:36:37.339Z,53.59
2018-06-23T14:37:37.463Z,53.40
2018-06-23T14:38:37.616Z,54.17
2018-06-23T14:39:37.759Z,53.78
2018-06-23T14:40:37.957Z,53.40
2018-06-23T14:41:38.156Z,53.50
2018-06-23T14:42:38.318Z,53.59
2018-06-23T14:43:38.464Z,51.96
2018-06-23T14:44:38.654Z,52.25
2018-06-23T14:45:38.893Z,52.12
2018-06-23T14:46:39.044Z,53.09
2018-06-23T14:47:39.188Z,52.80
2018-06-23T14:48:39.323Z,51.86
2018-06-23T14:49:39.548Z,52.34
2018-06-23T14:50:39.699Z,53.40
2018-06-23T14:51:39.897Z,52.25
2018-06-23T14:52:40.082Z,52.15
2018-06-23T14:53:40.211Z,52.34
2018-06-23T14:54:40.383Z,52.51
2018-06-23T14:55:40.565Z,53.28
2018-06-23T14:56:40.765Z,53.06
2018-06-23T14:57:40.903Z,53.35
2018-06-23T14:58:41.144Z,53.92
2018-06-23T14:59:41.286Z,54.31
2018-06-23T15:00:41.375Z,55.08
2018-06-23T15:01:41.589Z,54.99
2018-06-23T15:02:41.771Z,54.79
2018-06-23T15:03:41.927Z,53.92
2018-06-23T15:04:42.102Z,54.38
2018-06-23T15:05:42.243Z,54.12
2018-06-23T15:06:42.412Z,55.05
2018-06-23T15:07:42.584Z,56.21
2018-06-23T15:08:42.937Z,55.05
2018-06-23T15:09:42.917Z,54.96
2018-06-23T15:10:43.212Z,55.34
2018-06-23T15:11:43.295Z,55.24
2018-06-23T15:12:43.462Z,54.60
2018-06-23T15:13:43.644Z,54.89
2018-06-23T15:14:43.821Z,54.99
2018-06-23T15:15:44.021Z,54.31
2018-06-23T15:16:44.161Z,55.18
2018-06-23T15:17:44.329Z,56.04
2018-06-23T15:18:44.476Z,56.14
2018-06-23T15:19:44.674Z,56.33
2018-06-23T15:20:44.835Z,56.04
2018-06-23T15:21:44.993Z,55.37
2018-06-23T15:22:45.153Z,56.07
2018-06-23T15:23:45.322Z,54.49
2018-06-23T15:24:45.541Z,52.27
2018-06-23T15:25:45.667Z,51.43
2018-06-23T15:26:45.847Z,51.43
2018-06-23T15:27:46.053Z,51.92
2018-06-23T15:28:46.189Z,52.49
2018-06-23T15:29:46.381Z,52.69
2018-06-23T15:30:46.568Z,51.72
2018-06-23T15:31:46.711Z,52.30
2018-06-23T15:32:46.906Z,50.21
2018-06-23T15:33:47.016Z,50.95
2018-06-23T15:34:47.223Z,51.53
2018-06-23T15:35:47.355Z,52.47
2018-06-23T15:36:47.561Z,51.79
2018-06-23T15:37:47.703Z,51.89
2018-06-23T15:38:47.947Z,50.99
2018-06-23T15:39:48.043Z,49.84
2018-06-23T15:40:48.249Z,50.81
2018-06-23T15:41:48.406Z,51.29
2018-06-23T15:42:48.631Z,51.26
2018-06-23T15:43:48.782Z,50.40
2018-06-23T15:44:48.953Z,50.87
2018-06-23T15:45:49.157Z,50.30
2018-06-23T15:46:49.337Z,50.40
2018-06-23T15:47:49.462Z,50.15
2018-06-23T15:48:49.687Z,48.88
2018-06-23T15:49:49.785Z,49.29
2018-06-23T15:50:49.975Z,50.06
2018-06-23T15:51:50.179Z,49.68
2018-06-23T15:52:50.329Z,48.76
2018-06-23T15:53:50.556Z,47.51
2018-06-23T15:54:50.703Z,47.12
2018-06-23T15:55:50.855Z,47.14
2018-06-23T15:56:51.042Z,47.82
2018-06-23T15:57:51.239Z,47.31
2018-06-23T15:58:51.369Z,46.15